createdAt,value
2019-02-06T00:02:23.692Z,37.49
2019-02-06T00:07:26.976Z,37.30
2019-02-06T00:12:30.274Z,37.39
2019-02-06T00:17:33.622Z,37.24
2019-02-06T00:22:36.917Z,37.14
2019-02-06T00:27:40.596Z,37.17
2019-02-06T00:32:43.959Z,36.96
2019-02-06T00:37:47.238Z,37.03
2019-02-06T00:42:50.507Z,36.86
2019-02-06T00:47:53.782Z,36.80
2019-02-06T00:52:57.347Z,36.74
2019-02-06T00:58:00.622Z,36.64
2019-02-06T01:08:13.058Z,36.64
2019-02-06T01:13:16.385Z,36.48
2019-02-06T01:18:19.693Z,36.52
2019-02-06T01:23:22.982Z,36.39
2019-02-06T01:28:26.278Z,36.48
2019-02-06T01:33:29.642Z,36.34
2019-02-06T01:38:32.914Z,36.50
2019-02-06T01:43:36.648Z,36.41
2019-02-06T01:48:39.940Z,36.29
2019-02-06T01:53:43.210Z,36.41
2019-02-06T01:58:46.503Z,36.42
2019-02-06T02:03:49.814Z,36.41
2019-02-06T02:08:55.030Z,36.26
2019-02-06T02:13:58.326Z,36.36
2019-02-06T02:19:01.649Z,36.35
2019-02-06T02:24:04.944Z,36.24
2019-02-06T02:29:08.236Z,36.29
2019-02-06T02:34:11.599Z,36.31
2019-02-06T02:39:14.901Z,36.15
2019-02-06T02:44:18.218Z,36.32
2019-02-06T02:49:21.519Z,36.19
2019-02-06T02:54:24.797Z,36.08
2019-02-06T02:59:28.068Z,36.29
2019-02-06T03:04:31.418Z,36.09
2019-02-06T03:09:34.691Z,36.26
2019-02-06T03:14:37.985Z,36.27
2019-02-06T03:19:41.258Z,36.28
2019-02-06T03:24:44.535Z,36.18
2019-02-06T03:29:47.802Z,36.28
2019-02-06T03:34:51.145Z,36.18
2019-02-06T03:39:54.429Z,36.31
2019-02-06T03:44:57.720Z,36.32
2019-02-06T03:50:01.074Z,36.32
2019-02-06T03:55:05.959Z,36.40
2019-02-06T04:00:34.419Z,36.25
2019-02-06T04:05:37.710Z,36.29
2019-02-06T04:10:41.005Z,36.23
2019-02-06T04:15:44.360Z,36.33
2019-02-06T04:20:47.687Z,36.31
2019-02-06T04:25:51.352Z,36.18
2019-02-06T04:30:54.638Z,36.17
2019-02-06T04:35:57.908Z,36.11
2019-02-06T04:41:01.180Z,36.25
2019-02-06T04:46:04.513Z,36.23
2019-02-06T04:51:08.138Z,36.25
2019-02-06T04:56:11.439Z,36.18
2019-02-06T05:01:14.756Z,36.28
2019-02-06T05:06:18.092Z,36.18
2019-02-06T05:11:21.329Z,36.21
2019-02-06T05:16:24.596Z,36.18
2019-02-06T05:21:27.866Z,36.18
2019-02-06T05:26:31.153Z,36.21
2019-02-06T05:31:34.448Z,36.24
2019-02-06T05:36:37.843Z,36.27
2019-02-06T05:41:41.109Z,36.55
2019-02-06T05:46:44.428Z,37.79
2019-02-06T05:51:47.696Z,38.71
2019-02-06T05:56:51.361Z,38.65
2019-02-06T06:01:54.725Z,38.63
2019-02-06T06:06:58.024Z,38.32
2019-02-06T06:12:01.364Z,37.99
2019-02-06T06:17:04.739Z,37.78
2019-02-06T06:22:08.024Z,37.76
2019-02-06T06:27:11.318Z,37.43
2019-02-06T06:32:14.595Z,37.69
2019-02-06T06:37:18.135Z,37.62
2019-02-06T06:42:24.142Z,37.54
2019-02-06T06:47:26.510Z,37.70
2019-02-06T06:52:29.799Z,37.65
2019-02-06T06:57:33.085Z,37.46
2019-02-06T07:02:36.756Z,37.39
2019-02-06T12:56:06.899Z,36.88
2019-02-06T13:01:10.171Z,36.91
2019-02-06T13:06:13.460Z,36.99
2019-02-06T13:11:16.923Z,36.86
2019-02-06T13:16:20.198Z,36.80
2019-02-06T13:21:23.516Z,36.74
2019-02-06T13:26:26.789Z,36.67
2019-02-06T13:31:30.052Z,36.61
2019-02-06T13:36:33.517Z,36.47
2019-02-06T13:41:36.798Z,36.40
2019-02-06T13:46:40.093Z,36.51
2019-02-06T13:51:43.420Z,36.50
2019-02-06T13:56:46.715Z,36.36
2019-02-06T14:01:50.287Z,36.43
2019-02-06T14:06:53.549Z,36.27
2019-02-06T14:11:56.844Z,36.63
2019-02-06T14:17:00.125Z,36.64
2019-02-06T14:22:03.417Z,36.68
2019-02-06T14:27:13.057Z,36.68
2019-02-06T14:32:31.855Z,36.82
2019-02-06T14:37:41.189Z,36.73
2019-02-06T14:42:53.286Z,36.79
2019-02-06T14:48:27.194Z,36.90
2019-02-06T14:53:49.138Z,36.98
2019-02-06T14:59:13.044Z,37.20
2019-02-06T15:04:39.057Z,37.15
2019-02-06T15:09:51.415Z,37.25
2019-02-06T15:15:19.265Z,37.42
2019-02-06T15:20:46.263Z,37.77
2019-02-06T15:26:09.266Z,37.86
2019-02-06T15:31:30.730Z,38.42
2019-02-06T15:36:42.950Z,38.46
2019-02-06T15:41:52.317Z,38.86
2019-02-06T15:47:11.013Z,39.17
2019-02-06T15:52:26.193Z,39.00
2019-02-06T15:57:50.688Z,39.12
2019-02-06T16:02:57.206Z,39.27
2019-02-06T16:08:28.121Z,39.41
2019-02-06T16:14:04.584Z,39.31
2019-02-06T16:19:19.602Z,39.17
2019-02-06T16:24:56.169Z,39.04
2019-02-06T16:30:08.342Z,39.21
2019-02-06T16:35:17.922Z,39.08
2019-02-06T16:40:57.215Z,39.10
2019-02-06T16:46:13.092Z,39.10
2019-02-06T16:51:19.653Z,39.24
2019-02-06T16:56:42.840Z,39.31
2019-02-06T17:01:52.087Z,39.40
2019-02-06T17:07:13.683Z,41.08
2019-02-06T17:12:29.380Z,41.76
2019-02-06T17:17:53.710Z,42.25
2019-02-06T17:23:12.399Z,42.71
2019-02-06T17:28:37.599Z,43.04
2019-02-06T17:34:02.089Z,43.61
2019-02-06T17:39:24.494Z,43.73
2019-02-06T17:44:33.835Z,43.88
2019-02-06T17:49:49.482Z,44.09
2019-02-06T17:55:19.344Z,44.21
2019-02-06T18:00:34.773Z,44.52
2019-02-06T18:05:40.225Z,46.00
2019-02-06T18:10:43.095Z,47.54
2019-02-06T18:15:46.453Z,48.55
2019-02-06T18:20:49.746Z,49.67
2019-02-06T18:25:53.400Z,49.90
2019-02-06T18:30:56.691Z,50.41
2019-02-06T18:36:00.371Z,51.49
2019-02-06T18:41:03.650Z,52.63
2019-02-06T18:46:06.995Z,52.37
2019-02-06T18:51:10.666Z,52.66
2019-02-06T18:56:13.953Z,52.76
2019-02-06T19:01:17.252Z,53.64
2019-02-06T19:06:20.929Z,53.75
2019-02-06T19:11:24.752Z,53.12
2019-02-06T19:16:28.079Z,53.19
2019-02-06T19:21:31.743Z,53.22
2019-02-06T19:26:35.047Z,53.22
2019-02-06T19:31:38.343Z,53.39
2019-02-06T19:36:41.694Z,53.12
2019-02-06T19:41:44.974Z,53.15
2019-02-06T19:46:48.274Z,52.99
2019-02-06T19:51:51.565Z,52.85
2019-02-06T19:56:54.917Z,52.88
2019-02-06T20:01:58.241Z,53.33
2019-02-06T20:07:01.552Z,52.79
2019-02-06T20:12:04.835Z,52.83
2019-02-06T20:17:08.128Z,52.51
2019-02-06T20:22:11.420Z,52.57
2019-02-06T20:27:14.753Z,52.58
2019-02-06T20:32:18.044Z,52.29
2019-02-06T20:37:21.411Z,52.12
2019-02-06T20:42:24.702Z,52.01
2019-02-06T20:47:28.264Z,51.93
2019-02-06T20:52:31.554Z,51.79
2019-02-06T20:57:34.842Z,51.92
2019-02-06T21:02:38.115Z,54.43
2019-02-06T21:07:41.405Z,54.03
2019-02-06T21:12:44.765Z,52.91
2019-02-06T21:17:48.055Z,52.98
2019-02-06T21:22:51.415Z,52.79
2019-02-06T21:27:54.983Z,52.66
2019-02-06T21:32:58.339Z,52.49
2019-02-06T21:38:01.642Z,52.42
2019-02-06T21:43:05.877Z,52.07
2019-02-06T21:48:09.632Z,51.91
2019-02-06T21:53:13.297Z,51.87
2019-02-06T21:58:16.585Z,51.65
2019-02-06T22:03:19.856Z,51.80
2019-02-06T22:08:23.145Z,51.07
2019-02-06T22:13:26.474Z,50.71
2019-02-06T22:18:29.936Z,52.42
2019-02-06T22:23:33.226Z,51.87
2019-02-06T22:28:36.519Z,51.14
2019-02-06T22:33:39.809Z,51.31
2019-02-06T22:38:43.117Z,51.23
2019-02-06T22:43:46.425Z,50.65
2019-02-06T22:48:49.730Z,50.74
2019-02-06T22:53:53.002Z,50.67
2019-02-06T22:58:56.284Z,50.13
2019-02-06T23:04:02.641Z,49.99
2019-02-06T23:09:07.069Z,49.98
2019-02-06T23:14:17.132Z,49.64
2019-02-06T23:19:15.353Z,49.33
2019-02-06T23:24:18.625Z,49.30
2019-02-06T23:29:21.900Z,49.12
2019-02-06T23:34:25.196Z,48.81
2019-02-06T23:39:28.487Z,48.62
2019-02-06T23:44:32.158Z,48.66
2019-02-06T23:49:35.448Z,48.26
2019-02-06T23:54:38.712Z,48.12
2019-02-06T23:59:42.000Z,48.10
